sensor_id;sensor_type;location;lat;lon;timestamp;P1;durP1;ratioP1;P2;durP2;ratioP2
71975;SDS011;68326;52.124;5.424;2024-03-22T00:00:13;28.47;;;11.93;;
71975;SDS011;68326;52.124;5.424;2024-03-22T00:02:38;36.70;;;13.57;;
71975;SDS011;68326;52.124;5.424;2024-03-22T00:05:04;31.73;;;12.60;;
71975;SDS011;68326;52.124;5.424;2024-03-22T00:07:30;30.55;;;13.30;;
71975;SDS011;68326;52.124;5.424;2024-03-22T00:09:56;29.57;;;12.33;;
71975;SDS011;68326;52.124;5.424;2024-03-22T00:12:21;28.45;;;12.13;;
71975;SDS011;68326;52.124;5.424;2024-03-22T00:14:47;32.38;;;12.23;;
71975;SDS011;68326;52.124;5.424;2024-03-22T00:17:13;31.27;;;12.53;;
71975;SDS011;68326;52.124;5.424;2024-03-22T00:19:38;29.67;;;12.88;;
71975;SDS011;68326;52.124;5.424;2024-03-22T00:22:04;28.23;;;12.60;;
71975;SDS011;68326;52.124;5.424;2024-03-22T00:24:30;33.80;;;14.20;;
71975;SDS011;68326;52.124;5.424;2024-03-22T00:26:55;29.92;;;13.50;;
71975;SDS011;68326;52.124;5.424;2024-03-22T00:29:21;28.43;;;13.03;;
71975;SDS011;68326;52.124;5.424;2024-03-22T00:31:46;30.73;;;13.07;;
71975;SDS011;68326;52.124;5.424;2024-03-22T00:34:12;32.20;;;13.57;;
71975;SDS011;68326;52.124;5.424;2024-03-22T00:36:37;32.38;;;12.73;;
71975;SDS011;68326;52.124;5.424;2024-03-22T00:39:03;28.13;;;12.40;;
71975;SDS011;68326;52.124;5.424;2024-03-22T00:41:28;34.53;;;14.10;;
71975;SDS011;68326;52.124;5.424;2024-03-22T00:43:54;34.63;;;13.73;;
71975;SDS011;68326;52.124;5.424;2024-03-22T00:46:20;26.87;;;10.97;;
71975;SDS011;68326;52.124;5.424;2024-03-22T00:48:45;34.10;;;13.77;;
71975;SDS011;68326;52.124;5.424;2024-03-22T00:51:11;28.23;;;12.60;;
71975;SDS011;68326;52.124;5.424;2024-03-22T00:53:36;28.90;;;12.27;;
71975;SDS011;68326;52.124;5.424;2024-03-22T00:56:02;31.15;;;13.40;;
71975;SDS011;68326;52.124;5.424;2024-03-22T00:58:28;31.83;;;12.93;;
71975;SDS011;68326;52.124;5.424;2024-03-22T01:00:54;35.42;;;13.55;;
71975;SDS011;68326;52.124;5.424;2024-03-22T01:03:20;31.13;;;13.57;;
71975;SDS011;68326;52.124;5.424;2024-03-22T01:05:46;34.25;;;13.82;;
71975;SDS011;68326;52.124;5.424;2024-03-22T01:08:11;28.58;;;12.77;;
71975;SDS011;68326;52.124;5.424;2024-03-22T01:10:37;32.13;;;13.53;;
71975;SDS011;68326;52.124;5.424;2024-03-22T01:13:03;34.28;;;14.43;;
71975;SDS011;68326;52.124;5.424;2024-03-22T01:15:28;32.08;;;13.65;;
71975;SDS011;68326;52.124;5.424;2024-03-22T01:17:54;36.57;;;14.30;;
71975;SDS011;68326;52.124;5.424;2024-03-22T01:20:20;29.95;;;12.70;;
71975;SDS011;68326;52.124;5.424;2024-03-22T01:22:46;35.73;;;13.93;;
71975;SDS011;68326;52.124;5.424;2024-03-22T01:25:11;32.35;;;13.55;;
71975;SDS011;68326;52.124;5.424;2024-03-22T01:27:37;30.00;;;12.73;;
71975;SDS011;68326;52.124;5.424;2024-03-22T01:30:02;32.28;;;13.82;;
71975;SDS011;68326;52.124;5.424;2024-03-22T01:32:28;35.03;;;13.50;;
71975;SDS011;68326;52.124;5.424;2024-03-22T01:34:54;33.72;;;14.13;;
71975;SDS011;68326;52.124;5.424;2024-03-22T01:37:19;31.10;;;13.63;;
71975;SDS011;68326;52.124;5.424;2024-03-22T01:39:46;33.17;;;13.15;;
71975;SDS011;68326;52.124;5.424;2024-03-22T01:42:11;33.43;;;14.57;;
71975;SDS011;68326;52.124;5.424;2024-03-22T01:44:37;41.13;;;14.70;;
71975;SDS011;68326;52.124;5.424;2024-03-22T01:47:02;33.88;;;13.70;;
71975;SDS011;68326;52.124;5.424;2024-03-22T01:49:28;32.73;;;14.30;;
71975;SDS011;68326;52.124;5.424;2024-03-22T01:51:55;36.67;;;14.05;;
71975;SDS011;68326;52.124;5.424;2024-03-22T01:54:20;32.70;;;13.63;;
71975;SDS011;68326;52.124;5.424;2024-03-22T01:56:46;35.23;;;13.80;;
71975;SDS011;68326;52.124;5.424;2024-03-22T01:59:12;33.25;;;14.32;;
71975;SDS011;68326;52.124;5.424;2024-03-22T02:01:38;33.28;;;13.95;;
71975;SDS011;68326;52.124;5.424;2024-03-22T02:04:05;32.13;;;13.57;;
71975;SDS011;68326;52.124;5.424;2024-03-22T02:06:31;31.75;;;13.82;;
71975;SDS011;68326;52.124;5.424;2024-03-22T02:08:57;38.40;;;15.27;;
71975;SDS011;68326;52.124;5.424;2024-03-22T02:11:24;34.53;;;13.37;;
71975;SDS011;68326;52.124;5.424;2024-03-22T02:13:51;34.75;;;14.32;;
71975;SDS011;68326;52.124;5.424;2024-03-22T02:16:16;33.88;;;13.80;;
71975;SDS011;68326;52.124;5.424;2024-03-22T02:18:42;37.23;;;15.10;;
71975;SDS011;68326;52.124;5.424;2024-03-22T02:21:07;36.75;;;14.55;;
71975;SDS011;68326;52.124;5.424;2024-03-22T02:23:33;37.10;;;13.98;;
71975;SDS011;68326;52.124;5.424;2024-03-22T02:26:03;30.75;;;13.73;;
71975;SDS011;68326;52.124;5.424;2024-03-22T02:28:30;25.33;;;11.07;;
71975;SDS011;68326;52.124;5.424;2024-03-22T02:30:57;32.50;;;13.77;;
71975;SDS011;68326;52.124;5.424;2024-03-22T02:33:23;31.40;;;12.82;;
71975;SDS011;68326;52.124;5.424;2024-03-22T02:35:49;34.05;;;14.48;;
71975;SDS011;68326;52.124;5.424;2024-03-22T02:38:15;32.83;;;14.40;;
71975;SDS011;68326;52.124;5.424;2024-03-22T02:40:42;31.15;;;13.85;;
71975;SDS011;68326;52.124;5.424;2024-03-22T02:43:08;34.47;;;14.68;;
71975;SDS011;68326;52.124;5.424;2024-03-22T02:45:34;33.73;;;14.30;;
71975;SDS011;68326;52.124;5.424;2024-03-22T02:48:00;33.00;;;14.07;;
71975;SDS011;68326;52.124;5.424;2024-03-22T02:50:25;38.57;;;14.83;;
71975;SDS011;68326;52.124;5.424;2024-03-22T02:52:51;37.93;;;15.23;;
71975;SDS011;68326;52.124;5.424;2024-03-22T02:55:16;34.05;;;14.00;;
71975;SDS011;68326;52.124;5.424;2024-03-22T02:57:42;35.47;;;15.20;;
71975;SDS011;68326;52.124;5.424;2024-03-22T03:00:08;37.85;;;15.32;;
71975;SDS011;68326;52.124;5.424;2024-03-22T03:02:34;32.40;;;13.20;;
71975;SDS011;68326;52.124;5.424;2024-03-22T03:05:00;40.33;;;15.77;;
71975;SDS011;68326;52.124;5.424;2024-03-22T03:07:25;35.80;;;14.53;;
71975;SDS011;68326;52.124;5.424;2024-03-22T03:09:51;40.30;;;15.45;;
71975;SDS011;68326;52.124;5.424;2024-03-22T03:12:17;35.90;;;14.63;;
71975;SDS011;68326;52.124;5.424;2024-03-22T03:14:42;38.05;;;14.80;;
71975;SDS011;68326;52.124;5.424;2024-03-22T03:17:08;35.03;;;14.03;;
71975;SDS011;68326;52.124;5.424;2024-03-22T03:19:33;39.87;;;16.37;;
71975;SDS011;68326;52.124;5.424;2024-03-22T03:21:59;38.30;;;15.35;;
71975;SDS011;68326;52.124;5.424;2024-03-22T03:24:24;34.63;;;15.07;;
71975;SDS011;68326;52.124;5.424;2024-03-22T03:26:50;44.93;;;16.23;;
71975;SDS011;68326;52.124;5.424;2024-03-22T03:29:16;33.20;;;12.82;;
71975;SDS011;68326;52.124;5.424;2024-03-22T03:31:41;38.87;;;14.37;;
71975;SDS011;68326;52.124;5.424;2024-03-22T03:34:07;42.43;;;15.00;;
71975;SDS011;68326;52.124;5.424;2024-03-22T03:36:32;35.55;;;12.95;;
71975;SDS011;68326;52.124;5.424;2024-03-22T03:38:58;35.00;;;13.43;;
71975;SDS011;68326;52.124;5.424;2024-03-22T03:41:23;37.27;;;12.80;;
71975;SDS011;68326;52.124;5.424;2024-03-22T03:43:49;37.58;;;13.73;;
71975;SDS011;68326;52.124;5.424;2024-03-22T03:46:14;36.67;;;12.77;;
71975;SDS011;68326;52.124;5.424;2024-03-22T03:48:40;40.00;;;14.57;;
71975;SDS011;68326;52.124;5.424;2024-03-22T03:51:05;41.20;;;14.43;;
71975;SDS011;68326;52.124;5.424;2024-03-22T03:53:31;35.73;;;13.60;;
71975;SDS011;68326;52.124;5.424;2024-03-22T03:55:56;38.43;;;14.23;;
71975;SDS011;68326;52.124;5.424;2024-03-22T03:58:22;39.35;;;13.07;;
71975;SDS011;68326;52.124;5.424;2024-03-22T04:00:48;38.57;;;15.17;;
71975;SDS011;68326;52.124;5.424;2024-03-22T04:03:14;35.63;;;13.50;;
71975;SDS011;68326;52.124;5.424;2024-03-22T04:05:39;35.47;;;13.23;;
71975;SDS011;68326;52.124;5.424;2024-03-22T04:08:05;36.23;;;12.70;;
71975;SDS011;68326;52.124;5.424;2024-03-22T04:10:30;38.17;;;12.77;;
71975;SDS011;68326;52.124;5.424;2024-03-22T04:12:56;35.87;;;13.47;;
71975;SDS011;68326;52.124;5.424;2024-03-22T04:15:21;32.63;;;11.77;;
71975;SDS011;68326;52.124;5.424;2024-03-22T04:17:47;33.67;;;13.20;;
71975;SDS011;68326;52.124;5.424;2024-03-22T04:20:12;33.07;;;11.10;;
71975;SDS011;68326;52.124;5.424;2024-03-22T04:22:38;33.97;;;12.20;;
71975;SDS011;68326;52.124;5.424;2024-03-22T04:25:03;35.63;;;12.43;;
71975;SDS011;68326;52.124;5.424;2024-03-22T04:27:29;35.28;;;13.35;;
71975;SDS011;68326;52.124;5.424;2024-03-22T04:29:55;33.35;;;12.70;;
71975;SDS011;68326;52.124;5.424;2024-03-22T04:32:20;33.90;;;13.00;;
71975;SDS011;68326;52.124;5.424;2024-03-22T04:34:46;38.90;;;13.10;;
71975;SDS011;68326;52.124;5.424;2024-03-22T04:37:12;36.33;;;13.10;;
71975;SDS011;68326;52.124;5.424;2024-03-22T04:39:37;36.93;;;12.77;;
71975;SDS011;68326;52.124;5.424;2024-03-22T04:42:05;36.13;;;12.80;;
71975;SDS011;68326;52.124;5.424;2024-03-22T04:44:30;35.37;;;12.73;;
71975;SDS011;68326;52.124;5.424;2024-03-22T04:46:56;33.87;;;13.03;;
71975;SDS011;68326;52.124;5.424;2024-03-22T04:49:21;41.85;;;13.98;;
71975;SDS011;68326;52.124;5.424;2024-03-22T04:51:47;33.47;;;13.10;;
71975;SDS011;68326;52.124;5.424;2024-03-22T04:54:12;38.50;;;13.73;;
71975;SDS011;68326;52.124;5.424;2024-03-22T04:56:39;37.20;;;14.07;;
71975;SDS011;68326;52.124;5.424;2024-03-22T04:59:05;36.03;;;12.47;;
71975;SDS011;68326;52.124;5.424;2024-03-22T05:01:30;37.28;;;13.73;;
71975;SDS011;68326;52.124;5.424;2024-03-22T05:03:56;36.70;;;13.27;;
71975;SDS011;68326;52.124;5.424;2024-03-22T05:06:21;32.78;;;11.45;;
71975;SDS011;68326;52.124;5.424;2024-03-22T05:08:47;41.88;;;14.93;;
71975;SDS011;68326;52.124;5.424;2024-03-22T05:11:12;33.20;;;12.87;;
71975;SDS011;68326;52.124;5.424;2024-03-22T05:13:38;36.17;;;13.80;;
71975;SDS011;68326;52.124;5.424;2024-03-22T05:16:05;38.10;;;14.43;;
71975;SDS011;68326;52.124;5.424;2024-03-22T05:18:31;34.63;;;12.68;;
71975;SDS011;68326;52.124;5.424;2024-03-22T05:20:57;38.07;;;14.83;;
71975;SDS011;68326;52.124;5.424;2024-03-22T05:23:23;39.63;;;14.05;;
71975;SDS011;68326;52.124;5.424;2024-03-22T05:25:48;35.27;;;13.50;;
71975;SDS011;68326;52.124;5.424;2024-03-22T05:28:14;34.13;;;14.18;;
71975;SDS011;68326;52.124;5.424;2024-03-22T05:30:39;38.90;;;13.93;;
71975;SDS011;68326;52.124;5.424;2024-03-22T05:33:05;38.87;;;14.17;;
71975;SDS011;68326;52.124;5.424;2024-03-22T05:35:30;37.88;;;14.30;;
71975;SDS011;68326;52.124;5.424;2024-03-22T05:37:56;36.63;;;14.03;;
71975;SDS011;68326;52.124;5.424;2024-03-22T05:40:22;36.33;;;14.57;;
71975;SDS011;68326;52.124;5.424;2024-03-22T05:42:48;36.08;;;12.80;;
71975;SDS011;68326;52.124;5.424;2024-03-22T05:45:13;36.20;;;14.55;;
71975;SDS011;68326;52.124;5.424;2024-03-22T05:47:39;34.72;;;14.35;;
71975;SDS011;68326;52.124;5.424;2024-03-22T05:50:04;31.97;;;13.07;;
71975;SDS011;68326;52.124;5.424;2024-03-22T05:52:34;36.60;;;13.35;;
71975;SDS011;68326;52.124;5.424;2024-03-22T05:55:00;32.40;;;12.77;;
71975;SDS011;68326;52.124;5.424;2024-03-22T05:57:25;30.67;;;12.02;;
71975;SDS011;68326;52.124;5.424;2024-03-22T05:59:51;28.42;;;11.82;;
71975;SDS011;68326;52.124;5.424;2024-03-22T06:02:18;30.77;;;12.13;;
71975;SDS011;68326;52.124;5.424;2024-03-22T06:04:44;33.58;;;12.20;;
71975;SDS011;68326;52.124;5.424;2024-03-22T06:07:10;35.85;;;13.75;;
71975;SDS011;68326;52.124;5.424;2024-03-22T06:09:36;35.60;;;12.97;;
71975;SDS011;68326;52.124;5.424;2024-03-22T06:12:21;35.17;;;14.15;;
71975;SDS011;68326;52.124;5.424;2024-03-22T06:14:47;31.67;;;12.20;;
71975;SDS011;68326;52.124;5.424;2024-03-22T06:17:13;36.97;;;13.18;;
71975;SDS011;68326;52.124;5.424;2024-03-22T06:19:40;34.17;;;12.90;;
71975;SDS011;68326;52.124;5.424;2024-03-22T06:22:06;36.00;;;13.30;;
71975;SDS011;68326;52.124;5.424;2024-03-22T06:24:31;31.52;;;12.63;;
71975;SDS011;68326;52.124;5.424;2024-03-22T06:26:57;33.73;;;12.73;;
71975;SDS011;68326;52.124;5.424;2024-03-22T06:29:23;35.67;;;13.30;;
71975;SDS011;68326;52.124;5.424;2024-03-22T06:31:48;36.40;;;12.63;;
71975;SDS011;68326;52.124;5.424;2024-03-22T06:34:15;34.00;;;12.98;;
71975;SDS011;68326;52.124;5.424;2024-03-22T06:36:41;37.50;;;13.23;;
71975;SDS011;68326;52.124;5.424;2024-03-22T06:39:07;26.88;;;11.00;;
71975;SDS011;68326;52.124;5.424;2024-03-22T06:41:34;31.17;;;12.05;;
71975;SDS011;68326;52.124;5.424;2024-03-22T06:44:00;33.70;;;11.60;;
71975;SDS011;68326;52.124;5.424;2024-03-22T06:46:25;30.58;;;11.80;;
71975;SDS011;68326;52.124;5.424;2024-03-22T06:48:52;30.90;;;11.23;;
71975;SDS011;68326;52.124;5.424;2024-03-22T06:51:17;31.05;;;11.02;;
71975;SDS011;68326;52.124;5.424;2024-03-22T06:53:43;28.87;;;10.53;;
71975;SDS011;68326;52.124;5.424;2024-03-22T06:56:10;26.60;;;10.52;;
71975;SDS011;68326;52.124;5.424;2024-03-22T06:58:37;24.05;;;9.77;;
71975;SDS011;68326;52.124;5.424;2024-03-22T07:01:05;26.08;;;10.43;;
71975;SDS011;68326;52.124;5.424;2024-03-22T07:03:31;26.17;;;10.00;;
71975;SDS011;68326;52.124;5.424;2024-03-22T07:05:56;21.98;;;9.88;;
71975;SDS011;68326;52.124;5.424;2024-03-22T07:08:26;25.87;;;10.70;;
71975;SDS011;68326;52.124;5.424;2024-03-22T07:10:51;27.65;;;9.85;;
71975;SDS011;68326;52.124;5.424;2024-03-22T07:13:18;27.20;;;8.98;;
71975;SDS011;68326;52.124;5.424;2024-03-22T07:15:44;24.20;;;9.77;;
71975;SDS011;68326;52.124;5.424;2024-03-22T07:18:10;23.98;;;9.98;;
71975;SDS011;68326;52.124;5.424;2024-03-22T07:20:36;24.50;;;8.98;;
71975;SDS011;68326;52.124;5.424;2024-03-22T07:23:01;26.27;;;10.35;;
71975;SDS011;68326;52.124;5.424;2024-03-22T07:25:29;25.20;;;9.95;;
71975;SDS011;68326;52.124;5.424;2024-03-22T07:27:55;21.83;;;9.57;;
71975;SDS011;68326;52.124;5.424;2024-03-22T07:30:21;27.45;;;10.93;;
71975;SDS011;68326;52.124;5.424;2024-03-22T07:32:47;22.90;;;8.03;;
71975;SDS011;68326;52.124;5.424;2024-03-22T07:35:12;26.40;;;9.32;;
71975;SDS011;68326;52.124;5.424;2024-03-22T07:37:38;25.03;;;9.03;;
71975;SDS011;68326;52.124;5.424;2024-03-22T07:40:04;22.42;;;9.25;;
71975;SDS011;68326;52.124;5.424;2024-03-22T07:42:30;25.20;;;8.70;;
71975;SDS011;68326;52.124;5.424;2024-03-22T07:44:56;25.67;;;8.88;;
71975;SDS011;68326;52.124;5.424;2024-03-22T07:47:22;26.90;;;9.02;;
71975;SDS011;68326;52.124;5.424;2024-03-22T07:49:47;22.23;;;8.32;;
71975;SDS011;68326;52.124;5.424;2024-03-22T07:52:13;22.80;;;9.27;;
71975;SDS011;68326;52.124;5.424;2024-03-22T07:54:38;21.73;;;8.77;;
71975;SDS011;68326;52.124;5.424;2024-03-22T07:57:04;21.38;;;9.05;;
71975;SDS011;68326;52.124;5.424;2024-03-22T07:59:29;27.67;;;9.83;;
71975;SDS011;68326;52.124;5.424;2024-03-22T08:01:55;29.17;;;10.00;;
71975;SDS011;68326;52.124;5.424;2024-03-22T08:04:22;23.57;;;9.13;;
71975;SDS011;68326;52.124;5.424;2024-03-22T08:06:47;26.17;;;9.02;;
71975;SDS011;68326;52.124;5.424;2024-03-22T08:09:15;21.90;;;8.17;;
71975;SDS011;68326;52.124;5.424;2024-03-22T08:11:41;22.73;;;8.65;;
71975;SDS011;68326;52.124;5.424;2024-03-22T08:14:07;27.35;;;10.25;;
71975;SDS011;68326;52.124;5.424;2024-03-22T08:16:32;23.60;;;9.07;;
71975;SDS011;68326;52.124;5.424;2024-03-22T08:18:59;27.10;;;9.32;;
71975;SDS011;68326;52.124;5.424;2024-03-22T08:21:24;25.83;;;10.03;;
71975;SDS011;68326;52.124;5.424;2024-03-22T08:23:50;25.83;;;9.23;;
71975;SDS011;68326;52.124;5.424;2024-03-22T08:26:17;23.38;;;9.65;;
71975;SDS011;68326;52.124;5.424;2024-03-22T08:28:44;29.77;;;10.48;;
71975;SDS011;68326;52.124;5.424;2024-03-22T08:31:10;23.92;;;8.85;;
71975;SDS011;68326;52.124;5.424;2024-03-22T08:33:35;26.53;;;9.97;;
71975;SDS011;68326;52.124;5.424;2024-03-22T08:36:01;24.65;;;9.73;;
71975;SDS011;68326;52.124;5.424;2024-03-22T08:38:27;18.40;;;6.20;;
71975;SDS011;68326;52.124;5.424;2024-03-22T08:40:52;26.27;;;8.97;;
71975;SDS011;68326;52.124;5.424;2024-03-22T08:43:21;22.33;;;9.02;;
71975;SDS011;68326;52.124;5.424;2024-03-22T08:45:48;24.27;;;8.40;;
71975;SDS011;68326;52.124;5.424;2024-03-22T08:48:13;22.87;;;8.77;;
71975;SDS011;68326;52.124;5.424;2024-03-22T08:50:41;21.95;;;8.48;;
71975;SDS011;68326;52.124;5.424;2024-03-22T08:53:07;26.40;;;9.00;;
71975;SDS011;68326;52.124;5.424;2024-03-22T08:55:33;20.98;;;8.68;;
71975;SDS011;68326;52.124;5.424;2024-03-22T08:57:58;18.20;;;7.40;;
71975;SDS011;68326;52.124;5.424;2024-03-22T09:00:24;23.03;;;7.70;;
71975;SDS011;68326;52.124;5.424;2024-03-22T09:02:49;19.83;;;7.57;;
71975;SDS011;68326;52.124;5.424;2024-03-22T09:05:15;20.33;;;7.60;;
71975;SDS011;68326;52.124;5.424;2024-03-22T09:07:41;16.30;;;6.85;;
71975;SDS011;68326;52.124;5.424;2024-03-22T09:10:07;21.33;;;7.00;;
71975;SDS011;68326;52.124;5.424;2024-03-22T09:12:34;19.40;;;7.00;;
71975;SDS011;68326;52.124;5.424;2024-03-22T09:15:00;16.40;;;5.93;;
71975;SDS011;68326;52.124;5.424;2024-03-22T09:17:25;17.33;;;6.57;;
71975;SDS011;68326;52.124;5.424;2024-03-22T09:19:51;13.85;;;6.10;;
71975;SDS011;68326;52.124;5.424;2024-03-22T09:22:16;14.60;;;6.30;;
71975;SDS011;68326;52.124;5.424;2024-03-22T09:24:42;14.90;;;6.17;;
71975;SDS011;68326;52.124;5.424;2024-03-22T09:27:07;15.55;;;6.65;;
71975;SDS011;68326;52.124;5.424;2024-03-22T09:29:37;14.67;;;6.20;;
71975;SDS011;68326;52.124;5.424;2024-03-22T09:32:03;13.57;;;6.53;;
71975;SDS011;68326;52.124;5.424;2024-03-22T09:34:29;15.80;;;6.50;;
71975;SDS011;68326;52.124;5.424;2024-03-22T09:36:57;16.90;;;6.15;;
71975;SDS011;68326;52.124;5.424;2024-03-22T09:39:23;22.83;;;7.43;;
71975;SDS011;68326;52.124;5.424;2024-03-22T09:41:50;19.65;;;6.68;;
71975;SDS011;68326;52.124;5.424;2024-03-22T09:44:18;14.82;;;7.18;;
71975;SDS011;68326;52.124;5.424;2024-03-22T09:46:45;15.37;;;6.00;;
71975;SDS011;68326;52.124;5.424;2024-03-22T09:49:12;13.75;;;5.97;;
71975;SDS011;68326;52.124;5.424;2024-03-22T09:51:41;9.73;;;4.07;;
71975;SDS011;68326;52.124;5.424;2024-03-22T09:54:11;12.23;;;5.30;;
71975;SDS011;68326;52.124;5.424;2024-03-22T09:56:40;9.20;;;5.05;;
71975;SDS011;68326;52.124;5.424;2024-03-22T09:59:07;11.83;;;5.43;;
71975;SDS011;68326;52.124;5.424;2024-03-22T10:01:34;9.38;;;4.55;;
71975;SDS011;68326;52.124;5.424;2024-03-22T10:04:00;11.82;;;4.30;;
71975;SDS011;68326;52.124;5.424;2024-03-22T10:06:26;13.00;;;4.85;;
71975;SDS011;68326;52.124;5.424;2024-03-22T10:08:51;10.70;;;4.50;;
71975;SDS011;68326;52.124;5.424;2024-03-22T10:11:17;7.77;;;4.10;;
71975;SDS011;68326;52.124;5.424;2024-03-22T10:13:43;12.73;;;4.53;;
71975;SDS011;68326;52.124;5.424;2024-03-22T10:16:10;7.30;;;4.18;;
71975;SDS011;68326;52.124;5.424;2024-03-22T10:18:36;8.73;;;4.13;;
71975;SDS011;68326;52.124;5.424;2024-03-22T10:21:01;8.90;;;4.07;;
71975;SDS011;68326;52.124;5.424;2024-03-22T10:23:31;6.72;;;3.55;;
71975;SDS011;68326;52.124;5.424;2024-03-22T10:25:57;8.63;;;3.23;;
71975;SDS011;68326;52.124;5.424;2024-03-22T10:28:23;6.63;;;3.55;;
71975;SDS011;68326;52.124;5.424;2024-03-22T10:30:50;8.82;;;3.72;;
71975;SDS011;68326;52.124;5.424;2024-03-22T10:33:16;6.93;;;3.47;;
71975;SDS011;68326;52.124;5.424;2024-03-22T10:35:44;7.85;;;3.13;;
71975;SDS011;68326;52.124;5.424;2024-03-22T10:38:11;7.83;;;3.50;;
71975;SDS011;68326;52.124;5.424;2024-03-22T10:40:39;7.72;;;3.13;;
71975;SDS011;68326;52.124;5.424;2024-03-22T10:43:09;6.57;;;3.28;;
71975;SDS011;68326;52.124;5.424;2024-03-22T10:45:34;6.50;;;3.30;;
71975;SDS011;68326;52.124;5.424;2024-03-22T10:48:01;7.68;;;4.15;;
71975;SDS011;68326;52.124;5.424;2024-03-22T10:50:33;8.10;;;3.65;;
71975;SDS011;68326;52.124;5.424;2024-03-22T10:53:04;12.50;;;3.88;;
71975;SDS011;68326;52.124;5.424;2024-03-22T10:55:33;8.65;;;4.13;;
71975;SDS011;68326;52.124;5.424;2024-03-22T10:58:01;9.37;;;3.70;;
71975;SDS011;68326;52.124;5.424;2024-03-22T11:00:28;6.10;;;3.55;;
71975;SDS011;68326;52.124;5.424;2024-03-22T11:02:55;9.40;;;4.05;;
71975;SDS011;68326;52.124;5.424;2024-03-22T11:05:21;8.82;;;3.47;;
71975;SDS011;68326;52.124;5.424;2024-03-22T11:07:46;12.57;;;4.70;;
71975;SDS011;68326;52.124;5.424;2024-03-22T11:10:13;9.27;;;4.75;;
71975;SDS011;68326;52.124;5.424;2024-03-22T11:12:42;8.88;;;4.03;;
71975;SDS011;68326;52.124;5.424;2024-03-22T11:15:10;7.95;;;4.38;;
71975;SDS011;68326;52.124;5.424;2024-03-22T11:17:37;7.93;;;3.73;;
71975;SDS011;68326;52.124;5.424;2024-03-22T11:20:03;6.50;;;3.97;;
71975;SDS011;68326;52.124;5.424;2024-03-22T11:22:31;7.97;;;3.93;;
71975;SDS011;68326;52.124;5.424;2024-03-22T11:24:56;9.40;;;4.07;;
71975;SDS011;68326;52.124;5.424;2024-03-22T11:27:22;7.07;;;3.73;;
71975;SDS011;68326;52.124;5.424;2024-03-22T11:29:47;6.25;;;3.65;;
71975;SDS011;68326;52.124;5.424;2024-03-22T11:32:16;8.30;;;3.57;;
71975;SDS011;68326;52.124;5.424;2024-03-22T11:34:42;10.88;;;4.28;;
71975;SDS011;68326;52.124;5.424;2024-03-22T11:37:09;9.20;;;3.78;;
71975;SDS011;68326;52.124;5.424;2024-03-22T11:39:38;6.23;;;3.20;;
71975;SDS011;68326;52.124;5.424;2024-03-22T11:42:05;8.15;;;4.07;;
71975;SDS011;68326;52.124;5.424;2024-03-22T11:44:35;7.70;;;3.42;;
71975;SDS011;68326;52.124;5.424;2024-03-22T11:47:02;4.35;;;2.65;;
71975;SDS011;68326;52.124;5.424;2024-03-22T11:49:29;3.83;;;2.15;;
71975;SDS011;68326;52.124;5.424;2024-03-22T11:51:58;3.47;;;2.20;;
71975;SDS011;68326;52.124;5.424;2024-03-22T11:54:23;4.20;;;2.22;;
71975;SDS011;68326;52.124;5.424;2024-03-22T11:56:49;4.73;;;2.60;;
71975;SDS011;68326;52.124;5.424;2024-03-22T11:59:15;4.43;;;2.30;;
71975;SDS011;68326;52.124;5.424;2024-03-22T12:01:44;4.65;;;2.05;;
71975;SDS011;68326;52.124;5.424;2024-03-22T12:04:09;3.30;;;1.67;;
71975;SDS011;68326;52.124;5.424;2024-03-22T12:06:43;2.58;;;1.40;;
71975;SDS011;68326;52.124;5.424;2024-03-22T12:09:10;3.70;;;1.70;;
71975;SDS011;68326;52.124;5.424;2024-03-22T12:11:37;4.32;;;1.90;;
71975;SDS011;68326;52.124;5.424;2024-03-22T12:14:04;3.67;;;1.27;;
71975;SDS011;68326;52.124;5.424;2024-03-22T12:16:30;4.47;;;1.67;;
71975;SDS011;68326;52.124;5.424;2024-03-22T12:18:55;2.97;;;1.50;;
71975;SDS011;68326;52.124;5.424;2024-03-22T12:21:21;5.07;;;1.90;;
71975;SDS011;68326;52.124;5.424;2024-03-22T12:23:46;2.60;;;1.40;;
71975;SDS011;68326;52.124;5.424;2024-03-22T12:26:12;2.78;;;1.80;;
71975;SDS011;68326;52.124;5.424;2024-03-22T12:28:38;4.13;;;2.03;;
71975;SDS011;68326;52.124;5.424;2024-03-22T12:31:04;6.18;;;1.77;;
71975;SDS011;68326;52.124;5.424;2024-03-22T12:33:30;3.60;;;1.93;;
71975;SDS011;68326;52.124;5.424;2024-03-22T12:35:55;5.93;;;2.33;;
71975;SDS011;68326;52.124;5.424;2024-03-22T12:38:21;4.70;;;2.37;;
71975;SDS011;68326;52.124;5.424;2024-03-22T12:40:46;4.70;;;2.25;;
71975;SDS011;68326;52.124;5.424;2024-03-22T12:43:12;3.93;;;1.90;;
71975;SDS011;68326;52.124;5.424;2024-03-22T12:45:38;4.10;;;2.30;;
71975;SDS011;68326;52.124;5.424;2024-03-22T12:48:03;6.30;;;2.60;;
71975;SDS011;68326;52.124;5.424;2024-03-22T12:50:30;5.03;;;2.50;;
71975;SDS011;68326;52.124;5.424;2024-03-22T12:52:55;7.55;;;3.03;;
71975;SDS011;68326;52.124;5.424;2024-03-22T12:55:21;10.10;;;2.83;;
71975;SDS011;68326;52.124;5.424;2024-03-22T12:57:47;7.05;;;2.95;;
71975;SDS011;68326;52.124;5.424;2024-03-22T13:00:13;6.80;;;3.40;;
71975;SDS011;68326;52.124;5.424;2024-03-22T13:02:43;9.50;;;3.05;;
71975;SDS011;68326;52.124;5.424;2024-03-22T13:05:12;9.98;;;3.78;;
71975;SDS011;68326;52.124;5.424;2024-03-22T13:07:38;7.05;;;3.10;;
71975;SDS011;68326;52.124;5.424;2024-03-22T13:10:04;6.53;;;3.90;;
71975;SDS011;68326;52.124;5.424;2024-03-22T13:12:30;9.23;;;3.42;;
71975;SDS011;68326;52.124;5.424;2024-03-22T13:14:57;9.85;;;3.80;;
71975;SDS011;68326;52.124;5.424;2024-03-22T13:17:23;7.07;;;3.20;;
71975;SDS011;68326;52.124;5.424;2024-03-22T13:19:49;6.60;;;3.20;;
71975;SDS011;68326;52.124;5.424;2024-03-22T13:22:14;6.13;;;3.17;;
71975;SDS011;68326;52.124;5.424;2024-03-22T13:24:46;7.63;;;4.10;;
71975;SDS011;68326;52.124;5.424;2024-03-22T13:27:13;7.27;;;3.17;;
71975;SDS011;68326;52.124;5.424;2024-03-22T13:29:42;8.07;;;3.10;;
71975;SDS011;68326;52.124;5.424;2024-03-22T13:32:08;9.27;;;3.33;;
71975;SDS011;68326;52.124;5.424;2024-03-22T13:34:37;9.07;;;3.33;;
71975;SDS011;68326;52.124;5.424;2024-03-22T13:37:08;8.50;;;3.38;;
71975;SDS011;68326;52.124;5.424;2024-03-22T13:39:33;8.57;;;3.07;;
71975;SDS011;68326;52.124;5.424;2024-03-22T13:41:59;8.77;;;3.30;;
71975;SDS011;68326;52.124;5.424;2024-03-22T13:44:24;9.70;;;4.07;;
71975;SDS011;68326;52.124;5.424;2024-03-22T13:46:50;8.20;;;3.33;;
71975;SDS011;68326;52.124;5.424;2024-03-22T13:49:16;7.85;;;3.65;;
71975;SDS011;68326;52.124;5.424;2024-03-22T13:51:43;9.85;;;3.58;;
71975;SDS011;68326;52.124;5.424;2024-03-22T13:54:10;9.63;;;3.70;;
71975;SDS011;68326;52.124;5.424;2024-03-22T13:56:37;6.83;;;3.47;;
71975;SDS011;68326;52.124;5.424;2024-03-22T13:59:05;7.22;;;3.47;;
71975;SDS011;68326;52.124;5.424;2024-03-22T14:01:33;9.23;;;3.85;;
71975;SDS011;68326;52.124;5.424;2024-03-22T14:03:58;7.37;;;3.13;;
71975;SDS011;68326;52.124;5.424;2024-03-22T14:06:24;8.52;;;3.28;;
71975;SDS011;68326;52.124;5.424;2024-03-22T14:08:49;12.00;;;3.93;;
71975;SDS011;68326;52.124;5.424;2024-03-22T14:11:15;11.03;;;4.23;;
71975;SDS011;68326;52.124;5.424;2024-03-22T14:13:40;10.50;;;3.35;;
71975;SDS011;68326;52.124;5.424;2024-03-22T14:16:06;11.23;;;4.43;;
71975;SDS011;68326;52.124;5.424;2024-03-22T14:18:33;10.77;;;3.95;;
71975;SDS011;68326;52.124;5.424;2024-03-22T14:21:01;12.30;;;4.10;;
71975;SDS011;68326;52.124;5.424;2024-03-22T14:23:27;10.50;;;3.87;;